createdAt,value
2023-02-11T00:01:43.522Z,-11.81
2023-02-11T00:04:12.918Z,-11.89
2023-02-11T00:06:42.715Z,-11.96
2023-02-11T00:09:12.141Z,-12.00
2023-02-11T00:11:41.467Z,-12.00
2023-02-11T00:14:12.599Z,-12.00
2023-02-11T00:16:42.450Z,-11.97
2023-02-11T00:19:11.918Z,-12.00
2023-02-11T00:21:41.245Z,-12.03
2023-02-11T00:24:10.710Z,-12.07
2023-02-11T00:26:40.254Z,-12.07
2023-02-11T00:29:11.378Z,-12.06
2023-02-11T00:31:43.891Z,-12.06
2023-02-11T00:34:15.120Z,-12.06
2023-02-11T00:36:44.572Z,-12.07
2023-02-11T00:39:14.461Z,-12.06
2023-02-11T00:41:43.689Z,-12.07
2023-02-11T00:44:15.956Z,-12.09
2023-02-11T00:46:45.709Z,-12.13
2023-02-11T00:49:16.438Z,-12.16
2023-02-11T00:51:46.351Z,-12.20
2023-02-11T00:54:15.734Z,-12.19
2023-02-11T00:56:45.593Z,-12.20
2023-02-11T00:59:17.466Z,-12.19
2023-02-11T01:01:47.645Z,-12.22
2023-02-11T01:04:18.289Z,-12.24
2023-02-11T01:06:48.377Z,-12.26
2023-02-11T01:09:18.385Z,-12.32
2023-02-11T01:11:49.023Z,-12.36
2023-02-11T01:14:19.315Z,-12.38
2023-02-11T01:16:48.952Z,-12.38
2023-02-11T01:19:18.546Z,-12.38
2023-02-11T01:21:49.205Z,-12.38
2023-02-11T01:24:19.437Z,-12.37
2023-02-11T01:26:49.917Z,-12.36
2023-02-11T01:29:19.131Z,-12.38
2023-02-11T01:31:50.330Z,-12.37
2023-02-11T01:34:21.347Z,-12.38
2023-02-11T01:36:59.486Z,-12.41
2023-02-11T01:39:34.721Z,-12.47
2023-02-11T01:42:06.432Z,-12.52
2023-02-11T01:44:40.760Z,-12.56
2023-02-11T01:47:12.544Z,-12.62
2023-02-11T01:49:46.969Z,-12.66
2023-02-11T01:52:25.379Z,-12.71
2023-02-11T01:55:21.154Z,-12.73
2023-02-11T01:57:57.782Z,-12.76
2023-02-11T02:00:39.613Z,-12.77
2023-02-11T02:03:19.085Z,-12.78
2023-02-11T02:06:22.048Z,-12.80
2023-02-11T02:09:02.505Z,-12.81
2023-02-11T02:11:34.250Z,-12.84
2023-02-11T02:14:06.807Z,-12.85
2023-02-11T02:16:39.226Z,-12.84
2023-02-11T02:19:27.591Z,-12.87
2023-02-11T02:22:03.935Z,-12.91
2023-02-11T02:24:46.272Z,-12.95
2023-02-11T02:27:43.252Z,-12.97
2023-02-11T02:30:22.251Z,-12.97
2023-02-11T02:33:22.816Z,-12.98
2023-02-11T02:36:07.522Z,-13.00
2023-02-11T02:38:55.790Z,-13.00
2023-02-11T02:41:32.144Z,-13.01
2023-02-11T02:44:02.944Z,-13.02
2023-02-11T02:46:34.343Z,-13.01
2023-02-11T02:49:04.469Z,-13.02
2023-02-11T02:51:44.211Z,-13.04
2023-02-11T02:54:38.799Z,-13.07
2023-02-11T02:57:51.164Z,-13.13
2023-02-11T03:00:52.220Z,-13.17
2023-02-11T03:03:37.305Z,-13.21
2023-02-11T03:06:24.379Z,-13.24
2023-02-11T03:09:35.631Z,-13.25
2023-02-11T03:12:09.020Z,-13.28
2023-02-11T03:14:42.036Z,-13.29
2023-02-11T03:17:11.932Z,-13.27
2023-02-11T03:19:46.391Z,-13.27
2023-02-11T03:22:22.750Z,-13.25
2023-02-11T03:24:53.406Z,-13.26
2023-02-11T03:27:31.856Z,-13.25
2023-02-11T03:30:29.266Z,-13.24
2023-02-11T03:33:06.529Z,-13.23
2023-02-11T03:35:46.288Z,-13.21
2023-02-11T03:38:23.844Z,-13.19
2023-02-11T03:40:56.404Z,-13.16
2023-02-11T03:43:32.976Z,-13.15
2023-02-11T03:46:04.936Z,-13.15
2023-02-11T03:48:39.024Z,-13.15
2023-02-11T03:51:11.710Z,-13.15
2023-02-11T03:53:44.336Z,-13.14
2023-02-11T03:56:22.192Z,-13.15
2023-02-11T03:58:52.787Z,-13.14
2023-02-11T04:01:23.196Z,-13.13
2023-02-11T04:03:54.056Z,-13.14
2023-02-11T04:06:26.424Z,-13.16
2023-02-11T04:08:55.961Z,-13.19
2023-02-11T04:11:25.028Z,-13.24
2023-02-11T04:13:54.317Z,-13.30
2023-02-11T04:16:24.649Z,-13.37
2023-02-11T04:18:54.635Z,-13.43
2023-02-11T04:21:24.478Z,-13.47
2023-02-11T04:23:54.590Z,-13.51
2023-02-11T04:26:23.988Z,-13.54
2023-02-11T04:28:53.944Z,-13.53
2023-02-11T04:31:25.005Z,-13.55
2023-02-11T04:33:53.743Z,-13.57
2023-02-11T04:36:23.603Z,-13.59
2023-02-11T04:38:53.158Z,-13.60
2023-02-11T04:41:22.452Z,-13.62
2023-02-11T04:43:51.612Z,-13.65
2023-02-11T04:46:21.113Z,-13.66
2023-02-11T04:48:50.278Z,-13.65
2023-02-11T04:51:19.896Z,-13.65
2023-02-11T04:53:49.774Z,-13.69
2023-02-11T04:56:18.776Z,-13.73
2023-02-11T04:58:48.057Z,-13.75
2023-02-11T05:01:17.887Z,-13.76
2023-02-11T05:03:46.775Z,-13.80
2023-02-11T05:06:15.959Z,-13.85
2023-02-11T05:08:46.078Z,-13.89
2023-02-11T05:11:18.026Z,-13.91
2023-02-11T05:13:48.065Z,-13.91
2023-02-11T05:16:17.590Z,-13.92
2023-02-11T05:18:47.138Z,-13.94
2023-02-11T05:21:19.169Z,-13.96
2023-02-11T05:23:48.125Z,-13.96
2023-02-11T05:26:17.911Z,-13.98
2023-02-11T05:28:47.042Z,-14.01
2023-02-11T05:31:17.562Z,-14.08
2023-02-11T05:33:46.449Z,-14.13
2023-02-11T05:36:17.294Z,-14.15
2023-02-11T05:38:46.079Z,-14.16
2023-02-11T05:41:15.598Z,-14.14
2023-02-11T05:43:44.857Z,-14.08
2023-02-11T05:46:13.647Z,-14.02
2023-02-11T05:48:42.756Z,-13.94
2023-02-11T05:51:13.132Z,-13.84
2023-02-11T05:53:45.782Z,-13.77
2023-02-11T05:56:22.498Z,-13.70
2023-02-11T05:58:51.320Z,-13.67
2023-02-11T06:01:20.114Z,-13.64
2023-02-11T06:03:50.399Z,-13.58
2023-02-11T06:06:18.907Z,-13.50
2023-02-11T06:08:49.241Z,-13.42
2023-02-11T06:11:19.115Z,-13.31
2023-02-11T06:13:48.970Z,-13.19
2023-02-11T06:16:18.320Z,-13.05
2023-02-11T06:18:47.464Z,-12.93
2023-02-11T06:21:16.148Z,-12.82
2023-02-11T06:23:45.146Z,-12.72
2023-02-11T06:26:20.989Z,-12.64
2023-02-11T06:28:49.782Z,-12.53
2023-02-11T06:31:19.421Z,-12.42
2023-02-11T06:33:48.295Z,-12.25
2023-02-11T06:36:20.719Z,-12.16
2023-02-11T06:38:50.053Z,-12.03
2023-02-11T06:41:22.771Z,-11.83
2023-02-11T06:43:53.106Z,-11.63
2023-02-11T06:46:22.512Z,-11.41
2023-02-11T06:48:51.145Z,-11.08
2023-02-11T06:51:20.235Z,-10.84
2023-02-11T06:53:49.433Z,-10.52
2023-02-11T06:56:23.284Z,-10.27
2023-02-11T06:58:56.149Z,-10.02
2023-02-11T07:01:26.205Z,-9.66
2023-02-11T07:03:55.542Z,-9.28
2023-02-11T07:06:28.299Z,-8.74
2023-02-11T07:08:56.927Z,-8.22
2023-02-11T07:11:28.636Z,-7.80
2023-02-11T07:14:02.267Z,-7.53
2023-02-11T07:16:32.010Z,-7.44
2023-02-11T07:19:00.661Z,-6.93
2023-02-11T07:21:29.347Z,-7.01
2023-02-11T07:23:58.132Z,-6.94
2023-02-11T07:26:29.250Z,-7.11
2023-02-11T07:28:57.860Z,-6.73
2023-02-11T07:31:29.158Z,-6.53
2023-02-11T07:34:00.773Z,-6.40
2023-02-11T07:36:30.799Z,-6.27
2023-02-11T07:39:00.536Z,-5.90
2023-02-11T07:41:29.192Z,-5.49
2023-02-11T07:43:58.373Z,-5.11
2023-02-11T07:46:28.419Z,-4.93
2023-02-11T07:48:57.381Z,-4.35
2023-02-11T07:51:31.289Z,-4.17
2023-02-11T07:54:01.136Z,-3.83
2023-02-11T07:56:31.008Z,-3.51
2023-02-11T07:59:02.407Z,-3.34
2023-02-11T08:01:31.158Z,-3.23
2023-02-11T08:04:02.986Z,-2.64
2023-02-11T08:06:34.318Z,-2.02
2023-02-11T08:09:09.899Z,-1.67
2023-02-11T08:11:45.841Z,-1.90
2023-02-11T08:14:21.505Z,-0.92
2023-02-11T08:16:50.206Z,-0.42
2023-02-11T08:19:19.292Z,0.43
2023-02-11T08:21:48.077Z,0.26
2023-02-11T08:24:17.476Z,0.43
2023-02-11T08:26:46.379Z,0.15
2023-02-11T08:29:17.208Z,0.09
2023-02-11T08:31:48.428Z,-0.34
2023-02-11T08:34:20.514Z,-0.60
2023-02-11T08:36:49.709Z,-0.59
2023-02-11T08:39:21.931Z,-0.72
2023-02-11T08:41:56.791Z,-0.66
2023-02-11T08:44:25.615Z,-0.63
2023-02-11T08:47:00.669Z,-0.48
2023-02-11T08:49:34.433Z,0.06
2023-02-11T08:52:04.664Z,0.78
2023-02-11T08:54:33.041Z,0.75
2023-02-11T08:57:02.338Z,1.52
2023-02-11T08:59:31.528Z,2.03
2023-02-11T09:02:00.174Z,2.15
2023-02-11T09:04:29.108Z,1.25
2023-02-11T09:06:58.207Z,1.29
2023-02-11T09:09:27.654Z,2.03
2023-02-11T09:11:57.774Z,1.64
2023-02-11T09:14:27.548Z,2.65
2023-02-11T09:16:56.677Z,2.96
2023-02-11T09:19:26.442Z,3.54
2023-02-11T09:21:55.228Z,3.76
2023-02-11T09:24:23.929Z,3.62
2023-02-11T09:26:52.706Z,3.08
2023-02-11T09:29:21.489Z,3.52
2023-02-11T09:31:50.619Z,3.73
2023-02-11T09:34:19.586Z,4.00
2023-02-11T09:36:48.568Z,4.45
2023-02-11T09:39:20.473Z,4.23
2023-02-11T09:42:04.373Z,4.16
2023-02-11T09:44:35.958Z,4.13
2023-02-11T09:47:16.388Z,3.98
2023-02-11T09:49:49.339Z,2.85
2023-02-11T09:52:59.229Z,2.69
2023-02-11T09:55:38.090Z,1.55
2023-02-11T09:58:21.712Z,0.99
2023-02-11T10:01:02.610Z,0.96
2023-02-11T10:04:07.765Z,0.64
2023-02-11T10:06:47.150Z,0.48
2023-02-11T10:09:37.087Z,0.73
2023-02-11T10:12:11.542Z,1.22
2023-02-11T10:15:05.722Z,1.36
2023-02-11T10:18:12.812Z,1.76
2023-02-11T10:21:04.351Z,1.86
2023-02-11T10:23:41.521Z,2.13
2023-02-11T10:26:17.186Z,2.32
2023-02-11T10:28:50.046Z,3.06
2023-02-11T10:31:24.971Z,3.55
2023-02-11T10:34:07.596Z,3.93
2023-02-11T10:36:40.003Z,4.89
2023-02-11T10:39:16.336Z,5.36
2023-02-11T10:42:00.057Z,4.87
2023-02-11T10:44:41.871Z,3.90
2023-02-11T10:47:21.512Z,3.90
2023-02-11T10:49:50.603Z,3.75
2023-02-11T10:52:28.176Z,4.15
2023-02-11T10:55:01.898Z,4.89
2023-02-11T10:57:46.764Z,5.24
2023-02-11T11:00:18.687Z,5.93
2023-02-11T11:02:58.794Z,6.03
2023-02-11T11:05:37.703Z,6.61
2023-02-11T11:08:09.192Z,7.03
2023-02-11T11:11:04.676Z,7.03
2023-02-11T11:13:53.135Z,6.87
2023-02-11T11:16:24.853Z,6.96
2023-02-11T11:19:07.669Z,6.30
2023-02-11T11:21:41.204Z,5.92
2023-02-11T11:24:24.971Z,5.74
2023-02-11T11:26:57.672Z,6.02
2023-02-11T11:29:32.406Z,6.93
2023-02-11T11:32:13.416Z,6.72
2023-02-11T11:34:45.348Z,7.02
2023-02-11T11:37:35.773Z,7.59
2023-02-11T11:40:16.389Z,7.35
2023-02-11T11:42:44.848Z,7.11
2023-02-11T11:45:16.069Z,6.35
2023-02-11T11:48:07.354Z,6.01
2023-02-11T11:50:50.396Z,5.81
2023-02-11T11:53:31.567Z,5.61
2023-02-11T11:56:00.356Z,4.72
2023-02-11T11:58:31.291Z,4.89
2023-02-11T12:01:37.812Z,5.35
2023-02-11T12:04:47.174Z,4.71
2023-02-11T12:07:36.995Z,5.52
2023-02-11T12:10:15.045Z,6.46
2023-02-11T12:12:46.465Z,7.01
2023-02-11T12:15:56.701Z,7.58
2023-02-11T12:19:06.553Z,8.15
2023-02-11T12:21:43.943Z,7.29
2023-02-11T12:24:39.045Z,7.49
2023-02-11T12:27:30.666Z,7.76
2023-02-11T12:30:36.678Z,7.99
2023-02-11T12:33:36.881Z,7.72
2023-02-11T12:36:14.071Z,7.16
2023-02-11T12:39:08.839Z,6.37
2023-02-11T12:42:08.547Z,6.11
2023-02-11T12:44:56.587Z,6.22
2023-02-11T12:48:05.724Z,6.51
2023-02-11T12:51:06.668Z,5.81
2023-02-11T12:53:41.501Z,5.86
2023-02-11T12:56:43.253Z,5.57
2023-02-11T12:59:50.266Z,5.56
2023-02-11T13:02:48.003Z,5.73
2023-02-11T13:05:54.374Z,5.86
2023-02-11T13:08:47.435Z,6.10
2023-02-11T13:11:38.240Z,6.47
2023-02-11T13:14:16.757Z,6.86
2023-02-11T13:16:48.478Z,6.38
2023-02-11T13:19:27.699Z,5.52
2023-02-11T13:22:05.647Z,5.74
2023-02-11T13:24:44.982Z,5.85
2023-02-11T13:27:25.234Z,6.02
2023-02-11T13:30:01.205Z,5.36
2023-02-11T13:32:56.119Z,5.83
2023-02-11T13:35:43.312Z,5.93
2023-02-11T13:38:22.984Z,5.46
2023-02-11T13:41:21.400Z,5.61
2023-02-11T13:44:10.400Z,5.64
2023-02-11T13:46:50.966Z,5.26
2023-02-11T13:49:51.189Z,4.82
2023-02-11T13:52:24.787Z,4.52
2023-02-11T13:54:57.259Z,4.01
2023-02-11T13:57:35.472Z,3.46
2023-02-11T14:00:43.994Z,2.49
2023-02-11T14:03:30.831Z,2.04
2023-02-11T14:06:27.032Z,1.81
2023-02-11T14:09:11.718Z,1.14
2023-02-11T14:11:52.468Z,0.71
2023-02-11T14:14:27.383Z,0.66
2023-02-11T14:16:59.165Z,0.82
2023-02-11T14:19:33.793Z,0.87
2023-02-11T14:22:04.551Z,0.88
2023-02-11T14:24:33.091Z,0.88
2023-02-11T14:27:11.099Z,0.78
2023-02-11T14:29:59.417Z,0.76
2023-02-11T14:32:53.235Z,0.67
2023-02-11T14:36:02.809Z,0.49
2023-02-11T14:38:40.312Z,0.40
2023-02-11T14:41:24.706Z,0.32
2023-02-11T14:43:58.933Z,0.18
2023-02-11T14:46:31.147Z,-0.02
2023-02-11T14:49:03.917Z,-0.07
2023-02-11T14:51:36.991Z,-0.21
2023-02-11T14:54:15.596Z,-0.34
2023-02-11T14:56:44.954Z,-0.41
2023-02-11T14:59:23.009Z,-0.43
2023-02-11T15:01:57.510Z,-0.51
2023-02-11T15:04:31.627Z,-0.64
2023-02-11T15:07:06.557Z,-0.72
2023-02-11T15:09:54.594Z,-0.82
2023-02-11T15:12:26.764Z,-0.83
2023-02-11T15:14:59.354Z,-0.86
2023-02-11T15:17:32.003Z,-0.86
2023-02-11T15:20:02.862Z,-0.90
2023-02-11T15:22:37.170Z,-0.96
2023-02-11T15:25:17.626Z,-1.11
2023-02-11T15:27:54.378Z,-1.43
2023-02-11T15:30:22.994Z,-1.63
2023-02-11T15:32:53.972Z,-1.71
2023-02-11T15:35:23.320Z,-1.81
2023-02-11T15:37:52.223Z,-1.86
2023-02-11T15:40:25.212Z,-1.90
2023-02-11T15:43:04.181Z,-1.93
2023-02-11T15:45:43.166Z,-1.99
2023-02-11T15:48:15.940Z,-2.01
2023-02-11T15:50:52.759Z,-2.06
2023-02-11T15:53:37.784Z,-2.13
2023-02-11T15:56:30.127Z,-2.16
2023-02-11T15:59:09.262Z,-2.20
2023-02-11T16:01:41.959Z,-2.27
2023-02-11T16:16:53.709Z,-2.05
2023-02-11T16:19:25.678Z,-2.07
2023-02-11T16:21:57.147Z,-2.07
2023-02-11T16:24:32.523Z,-2.14
2023-02-11T16:27:03.860Z,-2.18
2023-02-11T16:29:36.750Z,-2.22
2023-02-11T16:32:21.214Z,-2.26
2023-02-11T16:34:51.118Z,-2.34
2023-02-11T16:37:19.901Z,-2.36
2023-02-11T16:39:49.203Z,-2.37
2023-02-11T16:42:17.667Z,-2.36
2023-02-11T16:44:46.271Z,-2.34
2023-02-11T16:47:26.222Z,-2.34
2023-02-11T16:49:56.543Z,-2.39
2023-02-11T17:05:56.174Z,-2.05
2023-02-11T17:08:25.024Z,-2.01
2023-02-11T17:10:53.873Z,-1.98
2023-02-11T17:13:22.993Z,-2.02
2023-02-11T17:15:51.769Z,-2.06
2023-02-11T17:18:20.837Z,-2.06
2023-02-11T17:20:49.938Z,-2.09
2023-02-11T17:23:18.560Z,-2.11
2023-02-11T17:25:47.004Z,-2.13
2023-02-11T17:28:15.634Z,-2.16
2023-02-11T17:30:44.419Z,-2.17
2023-02-11T17:33:13.160Z,-2.16
2023-02-11T17:35:42.147Z,-2.17
2023-02-11T17:38:11.045Z,-2.18
2023-02-11T17:40:40.449Z,-2.20
2023-02-11T17:43:09.226Z,-2.22
2023-02-11T17:45:42.169Z,-2.26
2023-02-11T17:48:10.998Z,-2.31
2023-02-11T17:50:39.584Z,-2.31
2023-02-11T17:53:08.574Z,-2.32
2023-02-11T17:55:38.746Z,-2.34
2023-02-11T17:58:07.930Z,-2.37
2023-02-11T18:00:36.641Z,-2.37
2023-02-11T18:03:05.365Z,-2.35
2023-02-11T18:05:35.856Z,-2.34
2023-02-11T18:08:07.460Z,-2.36
2023-02-11T18:10:36.790Z,-2.37
2023-02-11T18:13:05.335Z,-2.37
2023-02-11T18:15:34.430Z,-2.37
2023-02-11T18:18:03.008Z,-2.38
2023-02-11T18:20:31.799Z,-2.41
2023-02-11T18:23:00.581Z,-2.44
2023-02-11T18:25:30.502Z,-2.47
2023-02-11T18:27:59.007Z,-2.48
2023-02-11T18:30:28.384Z,-2.48
2023-02-11T18:32:57.172Z,-2.51
2023-02-11T18:35:25.866Z,-2.55
2023-02-11T18:37:54.335Z,-2.59
2023-02-11T18:40:22.843Z,-2.62
2023-02-11T18:42:53.438Z,-2.65
2023-02-11T18:45:22.202Z,-2.65
2023-02-11T18:47:50.781Z,-2.65
2023-02-11T18:50:22.212Z,-2.68
2023-02-11T18:52:50.960Z,-2.72
2023-02-11T18:55:23.588Z,-2.75
2023-02-11T18:57:53.253Z,-2.78
2023-02-11T19:00:22.244Z,-2.79
2023-02-11T19:02:53.198Z,-2.80
2023-02-11T19:05:21.940Z,-2.82
2023-02-11T19:07:50.444Z,-2.82
2023-02-11T19:10:19.439Z,-2.82
2023-02-11T19:12:48.230Z,-2.83
2023-02-11T19:15:17.426Z,-2.86
2023-02-11T19:17:46.005Z,-2.89
2023-02-11T19:20:15.043Z,-2.95
2023-02-11T19:22:43.581Z,-3.01
2023-02-11T19:25:12.674Z,-3.05
2023-02-11T19:27:42.003Z,-3.07
2023-02-11T19:30:11.041Z,-3.09
2023-02-11T19:32:39.609Z,-3.09
2023-02-11T19:35:08.542Z,-3.11
2023-02-11T19:37:37.027Z,-3.13
2023-02-11T19:40:06.593Z,-3.15
2023-02-11T19:42:35.040Z,-3.14
2023-02-11T19:45:04.104Z,-3.15
2023-02-11T19:47:32.997Z,-3.14
2023-02-11T19:50:01.581Z,-3.11
2023-02-11T19:52:30.573Z,-3.09
2023-02-11T19:55:00.897Z,-3.05
2023-02-11T19:57:29.275Z,-3.01
2023-02-11T19:59:57.878Z,-3.00
2023-02-11T20:02:26.586Z,-2.97
2023-02-11T20:04:55.947Z,-2.96
2023-02-11T20:07:24.634Z,-2.93
2023-02-11T20:09:54.034Z,-2.91
2023-02-11T20:12:22.614Z,-2.88
2023-02-11T20:14:52.321Z,-2.86
2023-02-11T20:17:20.790Z,-2.84
2023-02-11T20:19:49.387Z,-2.82
2023-02-11T20:22:18.086Z,-2.80
2023-02-11T20:24:46.964Z,-2.78
2023-02-11T20:27:17.301Z,-2.78
2023-02-11T20:29:46.992Z,-2.80
2023-02-11T20:32:15.740Z,-2.82
2023-02-11T20:34:44.669Z,-2.86
2023-02-11T20:37:13.360Z,-2.87
2023-02-11T20:39:45.321Z,-2.90
2023-02-11T20:42:15.324Z,-2.92
2023-02-11T20:44:43.921Z,-2.93
2023-02-11T20:47:12.816Z,-2.94
2023-02-11T20:49:41.288Z,-2.95
2023-02-11T20:52:09.856Z,-2.95
2023-02-11T20:54:38.234Z,-2.94
2023-02-11T20:57:07.554Z,-2.93
2023-02-11T20:59:36.138Z,-2.93
2023-02-11T21:02:04.842Z,-2.93
2023-02-11T21:04:33.715Z,-2.92
2023-02-11T21:07:02.837Z,-2.91
2023-02-11T21:09:33.674Z,-2.89
2023-02-11T21:12:02.944Z,-2.90
2023-02-11T21:14:31.841Z,-2.92
2023-02-11T21:17:00.729Z,-2.90
2023-02-11T21:19:29.312Z,-2.87
2023-02-11T21:22:00.807Z,-2.87
2023-02-11T21:24:31.187Z,-2.87
2023-02-11T21:26:59.796Z,-2.87
2023-02-11T21:29:28.523Z,-2.85
2023-02-11T21:31:57.104Z,-2.84
2023-02-11T21:34:25.931Z,-2.83
2023-02-11T21:36:55.032Z,-2.84
2023-02-11T21:39:23.711Z,-2.84
2023-02-11T21:41:52.501Z,-2.85
2023-02-11T21:44:21.494Z,-2.86
2023-02-11T21:46:50.114Z,-2.85
2023-02-11T21:49:20.521Z,-2.87
2023-02-11T21:51:49.087Z,-2.89
2023-02-11T21:54:19.099Z,-2.90
2023-02-11T21:56:50.968Z,-2.91
2023-02-11T21:59:20.674Z,-2.91
2023-02-11T22:01:49.335Z,-2.89
2023-02-11T22:04:18.478Z,-2.88
2023-02-11T22:06:47.145Z,-2.87
2023-02-11T22:09:16.139Z,-2.87
2023-02-11T22:11:44.876Z,-2.87
2023-02-11T22:14:13.815Z,-2.88
2023-02-11T22:16:45.727Z,-2.90
2023-02-11T22:19:14.872Z,-2.89
2023-02-11T22:21:43.769Z,-2.88
2023-02-11T22:24:13.584Z,-2.90
2023-02-11T22:26:42.259Z,-2.92
2023-02-11T22:29:12.725Z,-2.96
2023-02-11T22:31:41.505Z,-2.97
2023-02-11T22:34:10.879Z,-2.99
2023-02-11T22:36:41.719Z,-3.01
2023-02-11T22:39:16.030Z,-3.02
2023-02-11T22:41:47.361Z,-3.04
2023-02-11T22:44:17.589Z,-3.05
2023-02-11T22:46:46.663Z,-3.03
2023-02-11T22:49:17.518Z,-3.03
2023-02-11T22:51:46.712Z,-3.04
2023-02-11T22:54:18.405Z,-3.04
2023-02-11T22:56:51.467Z,-3.05
2023-02-11T22:59:20.560Z,-3.08
2023-02-11T23:01:49.734Z,-3.09
2023-02-11T23:04:19.523Z,-3.11
2023-02-11T23:06:48.770Z,-3.14
2023-02-11T23:09:18.173Z,-3.16
2023-02-11T23:11:48.860Z,-3.16
2023-02-11T23:14:17.697Z,-3.15
2023-02-11T23:16:46.502Z,-3.14
2023-02-11T23:19:15.260Z,-3.15
2023-02-11T23:21:44.189Z,-3.16
2023-02-11T23:24:15.281Z,-3.16
2023-02-11T23:26:44.986Z,-3.16
2023-02-11T23:29:14.615Z,-3.15
2023-02-11T23:31:46.363Z,-3.14
2023-02-11T23:34:24.273Z,-3.12
2023-02-11T23:36:53.371Z,-3.13
2023-02-11T23:39:22.155Z,-3.18
2023-02-11T23:41:52.994Z,-3.22
2023-02-11T23:44:21.781Z,-3.28
2023-02-11T23:46:50.769Z,-3.29
2023-02-11T23:49:19.462Z,-3.31
2023-02-11T23:51:48.186Z,-3.31
2023-02-11T23:54:16.885Z,-3.33
2023-02-11T23:56:46.882Z,-3.34
2023-02-11T23:59:16.159Z,-3.37
